Weather at Kiev Chaika

Public forecast

Using degrees Celsius for public forecast. Weather courtesy of forecast.io.

Closest aviation weather report (METAR) to Kiev Chaika

Closest report is Kiev Zhuliany International Airport, 6.1 nm (11.3 km) ESE. Retrieved 2020/11/27 17:30 UTC (0 seconds ago):

UKKK 271730Z 25004MPS 7000 SCT012 BKN024 03/01 Q1017 R26/190060 NOSIG

Closest aviation forecast (TAF) to Kiev Chaika

Closest forecast is Kiev Zhuliany International Airport, 6.1 nm (11.3 km) ESE. Retrieved 2020/11/27 12:12 UTC (5 hours ago):

TAF TAF UKKK 271108Z 2712/2812 24005G11MPS 5000 BR OVC006 TX03/2712Z TNM01/2804Z TEMPO 2714/2724 27007G12MPS 1500 -SHSNRA BR BKN003 SCT010CB PROB40 TEMPO 2714/2724 0400 -DZ FG OVC002 TEMPO 2800/2812 2100 -SHSN BR BKN003 SCT012CB BECMG 2806/2808 20004G09MPS